createdAt,value
2019-03-05T00:00:48.347Z,78.30
2019-03-05T00:03:17.333Z,78.20
2019-03-05T00:05:49.267Z,78.40
2019-03-05T00:08:20.687Z,79.50
2019-03-05T00:10:49.510Z,78.70
2019-03-05T00:13:18.488Z,78.30
2019-03-05T00:15:49.491Z,76.20
2019-03-05T00:18:21.123Z,75.40
2019-03-05T00:20:50.184Z,77.30
2019-03-05T00:26:38.164Z,77.50
2019-03-05T00:29:15.690Z,77.20
2019-03-05T00:31:47.382Z,78.30
2019-03-05T00:34:26.729Z,79.00
2019-03-05T00:40:10.461Z,79.70
2019-03-05T00:43:04.482Z,78.30
2019-03-05T00:45:48.768Z,78.70
2019-03-05T00:48:54.041Z,79.50
2019-03-05T00:51:39.587Z,79.70
2019-03-05T00:55:01.838Z,80.20
2019-03-05T00:57:41.492Z,79.50
2019-03-05T01:00:28.416Z,79.00
2019-03-05T01:03:27.749Z,79.80
2019-03-05T01:06:26.042Z,80.00
2019-03-05T01:08:57.547Z,80.20
2019-03-05T01:11:42.375Z,80.10
2019-03-05T01:14:12.227Z,80.70
2019-03-05T01:16:42.880Z,79.80
2019-03-05T01:19:12.159Z,79.30
2019-03-05T01:21:41.194Z,78.40
2019-03-05T01:24:12.160Z,78.60
2019-03-05T01:26:41.467Z,78.10
2019-03-05T01:29:11.886Z,80.30
2019-03-05T01:31:49.242Z,81.10
2019-03-05T01:34:25.598Z,81.20
2019-03-05T01:36:56.480Z,78.80
2019-03-05T01:39:37.159Z,79.10
2019-03-05T01:42:09.205Z,77.70
2019-03-05T01:44:39.660Z,77.50
2019-03-05T01:47:08.764Z,77.80
2019-03-05T01:49:37.671Z,77.60
2019-03-05T01:52:10.986Z,78.30
2019-03-05T01:54:42.511Z,79.40
2019-03-05T01:57:12.199Z,78.90
2019-03-05T01:59:41.169Z,79.90
2019-03-05T02:02:11.918Z,79.30
2019-03-05T02:04:42.155Z,78.90
2019-03-05T02:07:11.061Z,79.60
2019-03-05T02:09:48.383Z,80.70
2019-03-05T02:12:20.177Z,79.80
2019-03-05T02:14:49.074Z,80.00
2019-03-05T02:17:18.304Z,80.70
2019-03-05T02:19:47.871Z,79.40
2019-03-05T02:22:29.393Z,79.90
2019-03-05T02:25:06.477Z,79.10
2019-03-05T02:27:53.911Z,78.10
2019-03-05T02:30:28.950Z,79.60
2019-03-05T02:33:10.480Z,78.80
2019-03-05T02:35:57.269Z,79.70
2019-03-05T02:38:45.886Z,81.00
2019-03-05T02:41:20.472Z,79.70
2019-03-05T02:44:01.108Z,78.50
2019-03-05T02:46:38.541Z,79.60
2019-03-05T02:49:19.761Z,81.80
2019-03-05T02:52:04.910Z,80.10
2019-03-05T02:54:48.842Z,79.90
2019-03-05T02:57:19.730Z,78.90
2019-03-05T02:59:48.621Z,76.30
2019-03-05T03:02:24.698Z,77.30
2019-03-05T03:05:03.977Z,79.00
2019-03-05T03:07:36.939Z,78.40
2019-03-05T03:10:14.773Z,74.80
2019-03-05T03:12:43.699Z,77.00
2019-03-05T03:15:13.009Z,75.20
2019-03-05T03:17:42.263Z,74.40
2019-03-05T03:20:13.158Z,76.60
2019-03-05T03:22:42.082Z,78.90
2019-03-05T03:25:13.862Z,80.90
2019-03-05T03:27:42.860Z,80.80
2019-03-05T03:30:14.467Z,81.20
2019-03-05T03:32:45.057Z,82.50
2019-03-05T03:35:15.630Z,82.70
2019-03-05T03:37:44.439Z,83.00
2019-03-05T03:40:18.559Z,83.20
2019-03-05T03:42:47.817Z,82.70
2019-03-05T03:45:21.735Z,83.00
2019-03-05T03:47:50.640Z,83.50
2019-03-05T03:50:19.923Z,83.00
2019-03-05T03:52:48.764Z,82.20
2019-03-05T03:55:18.152Z,82.30
2019-03-05T03:57:48.328Z,83.40
2019-03-05T04:00:23.774Z,82.70
2019-03-05T04:02:54.520Z,84.40
2019-03-05T04:05:24.512Z,85.00
2019-03-05T04:07:53.393Z,84.90
2019-03-05T04:10:24.505Z,84.10
2019-03-05T04:12:53.878Z,82.90
2019-03-05T04:15:24.298Z,82.80
2019-03-05T04:17:54.166Z,82.20
2019-03-05T04:20:29.526Z,83.00
2019-03-05T04:22:58.406Z,83.30
2019-03-05T04:25:27.350Z,83.70
2019-03-05T04:27:56.163Z,84.40
2019-03-05T04:30:25.153Z,84.00
2019-03-05T04:32:55.729Z,83.40
2019-03-05T04:35:24.543Z,82.70
2019-03-05T04:37:53.589Z,82.80
2019-03-05T04:40:22.535Z,82.90
2019-03-05T04:42:51.943Z,82.60
2019-03-05T04:45:40.081Z,83.80
2019-03-05T04:48:09.215Z,82.60
2019-03-05T04:50:45.933Z,83.40
2019-03-05T04:53:14.895Z,82.70
2019-03-05T04:55:44.353Z,82.80
2019-03-05T04:58:13.332Z,81.40
2019-03-05T05:00:42.220Z,82.10
2019-03-05T05:03:11.152Z,82.00
2019-03-05T05:05:40.686Z,82.00
2019-03-05T05:08:09.492Z,81.60
2019-03-05T05:13:27.833Z,81.70
2019-03-05T05:15:56.718Z,82.20
2019-03-05T05:18:27.429Z,82.80
2019-03-05T05:20:57.265Z,83.00
2019-03-05T05:23:28.439Z,83.10
2019-03-05T05:25:57.606Z,83.00
2019-03-05T05:28:27.076Z,82.60
2019-03-05T05:30:56.129Z,81.30
2019-03-05T05:33:26.180Z,82.00
2019-03-05T05:35:55.855Z,82.20
2019-03-05T05:38:24.762Z,81.70
2019-03-05T05:40:53.664Z,81.30
2019-03-05T05:43:25.151Z,80.80
2019-03-05T05:45:54.916Z,81.90
2019-03-05T05:48:24.307Z,81.30
2019-03-05T05:50:54.049Z,82.00
2019-03-05T05:53:23.047Z,82.00
2019-03-05T05:55:51.941Z,83.40
2019-03-05T05:58:25.744Z,82.20
2019-03-05T06:00:56.549Z,82.30
2019-03-05T06:03:25.470Z,82.10
2019-03-05T06:05:54.747Z,82.00
2019-03-05T06:08:23.642Z,82.20
2019-03-05T06:10:53.229Z,82.10
2019-03-05T06:13:22.276Z,82.10
2019-03-05T06:15:53.398Z,82.70
2019-03-05T06:18:24.707Z,81.90
2019-03-05T06:20:53.575Z,80.50
2019-03-05T06:23:23.629Z,80.70
2019-03-05T06:25:55.012Z,81.50
2019-03-05T06:28:24.773Z,81.20
2019-03-05T06:30:53.671Z,82.20
2019-03-05T06:33:23.444Z,82.20
2019-03-05T06:35:53.909Z,82.10
2019-03-05T06:38:23.603Z,82.10
2019-03-05T06:40:54.126Z,82.90
2019-03-05T06:43:24.825Z,83.40
2019-03-05T06:45:54.066Z,82.80
2019-03-05T06:48:22.865Z,83.60
2019-03-05T06:50:51.721Z,83.40
2019-03-05T06:53:21.110Z,82.50
2019-03-05T06:55:50.019Z,82.30
2019-03-05T06:58:18.978Z,83.30
2019-03-05T07:00:49.391Z,84.00
2019-03-05T07:03:18.480Z,83.90
2019-03-05T07:06:23.639Z,83.60
2019-03-05T07:09:05.077Z,82.40
2019-03-05T07:15:06.181Z,83.50
2019-03-05T07:17:48.156Z,83.70
2019-03-05T07:20:54.405Z,82.10
2019-03-05T07:23:52.084Z,81.30
2019-03-05T07:26:21.885Z,81.50
2019-03-05T07:28:51.621Z,79.20
2019-03-05T07:31:22.001Z,80.00
2019-03-05T07:33:51.904Z,81.80
2019-03-05T07:36:21.558Z,81.90
2019-03-05T07:38:50.740Z,81.60
2019-03-05T07:41:20.211Z,81.10
2019-03-05T07:43:49.903Z,80.90
2019-03-05T07:46:18.874Z,80.60
2019-03-05T07:48:48.111Z,78.70
2019-03-05T07:51:17.101Z,80.90
2019-03-05T07:53:47.567Z,81.20
2019-03-05T07:56:17.463Z,81.70
2019-03-05T07:58:49.135Z,82.50
2019-03-05T08:01:22.570Z,81.40
2019-03-05T08:03:51.361Z,81.90
2019-03-05T08:06:20.824Z,82.00
2019-03-05T08:09:25.652Z,82.50
2019-03-05T08:11:57.606Z,80.10
2019-03-05T08:14:48.635Z,81.70
2019-03-05T08:17:17.555Z,80.40
2019-03-05T08:19:46.434Z,79.40
2019-03-05T08:22:17.562Z,79.50
2019-03-05T08:24:46.521Z,79.80
2019-03-05T08:27:15.367Z,80.20
2019-03-05T08:29:44.293Z,79.90
2019-03-05T08:32:15.537Z,79.90
2019-03-05T08:34:44.762Z,79.20
2019-03-05T08:37:13.937Z,77.80
2019-03-05T08:39:53.217Z,77.90
2019-03-05T08:42:27.074Z,78.30
2019-03-05T08:44:56.025Z,77.90
2019-03-05T08:47:25.270Z,78.30
2019-03-05T08:49:54.132Z,78.50
2019-03-05T08:52:22.915Z,77.90
2019-03-05T08:54:52.049Z,77.70
2019-03-05T08:57:21.261Z,76.00
2019-03-05T08:59:50.040Z,77.30
2019-03-05T09:02:18.836Z,76.80
2019-03-05T09:04:47.637Z,75.90
2019-03-05T09:07:17.501Z,75.60
2019-03-05T09:09:46.453Z,76.60
2019-03-05T09:12:15.444Z,76.70
2019-03-05T09:14:44.656Z,76.70
2019-03-05T09:17:13.662Z,76.40
2019-03-05T09:19:43.226Z,75.00
2019-03-05T09:22:11.997Z,74.60
2019-03-05T09:24:41.251Z,74.70
2019-03-05T09:27:11.037Z,74.00
2019-03-05T09:29:43.138Z,73.90
2019-03-05T09:32:14.447Z,74.00
2019-03-05T09:34:46.176Z,73.90
2019-03-05T09:37:19.708Z,73.50
2019-03-05T09:39:52.734Z,73.90
2019-03-05T09:42:22.548Z,73.10
2019-03-05T09:44:51.451Z,72.20
2019-03-05T09:47:28.077Z,71.90
2019-03-05T09:49:57.022Z,73.10
2019-03-05T09:52:26.036Z,71.80
2019-03-05T09:54:55.740Z,71.20
2019-03-05T09:57:28.553Z,70.80
2019-03-05T09:59:59.286Z,70.80
2019-03-05T10:11:41.180Z,68.50
2019-03-05T10:14:17.455Z,68.20
2019-03-05T10:19:21.540Z,69.10
2019-03-05T10:21:52.142Z,68.00
2019-03-05T10:24:25.368Z,67.00
2019-03-05T10:26:57.964Z,66.80
2019-03-05T10:29:27.842Z,67.10
2019-03-05T10:31:57.107Z,66.00
2019-03-05T10:34:27.093Z,66.20
2019-03-05T10:36:56.975Z,62.80
2019-03-05T10:39:32.603Z,64.40
2019-03-05T10:42:03.001Z,63.10
2019-03-05T10:44:53.630Z,63.30
2019-03-05T10:47:22.898Z,63.10
2019-03-05T10:49:55.064Z,60.50
2019-03-05T10:52:29.163Z,59.70
2019-03-05T10:55:00.922Z,59.40
2019-03-05T11:04:11.801Z,59.20
2019-03-05T11:06:41.485Z,58.10
2019-03-05T11:09:13.557Z,58.50
2019-03-05T11:11:46.911Z,57.90
2019-03-05T11:14:24.749Z,59.00
2019-03-05T11:16:54.377Z,59.00
2019-03-05T11:19:25.462Z,57.80
2019-03-05T11:21:54.570Z,57.50
2019-03-05T11:24:26.469Z,57.30
2019-03-05T11:26:56.727Z,57.00
2019-03-05T11:29:39.685Z,56.60
2019-03-05T11:32:09.652Z,56.30
2019-03-05T11:34:42.785Z,57.20
2019-03-05T11:37:11.933Z,57.70
2019-03-05T11:39:42.051Z,54.60
2019-03-05T11:42:15.202Z,54.70
2019-03-05T11:44:58.833Z,54.50
2019-03-05T11:51:06.941Z,53.80
2019-03-05T11:54:23.844Z,51.70
2019-03-05T11:56:53.450Z,51.60
2019-03-05T11:59:22.724Z,51.00
2019-03-05T12:01:54.462Z,50.30
2019-03-05T12:04:23.453Z,49.30
2019-03-05T12:06:52.549Z,48.40
2019-03-05T12:09:21.826Z,47.30
2019-03-05T12:11:54.659Z,46.50
2019-03-05T12:14:23.719Z,47.20
2019-03-05T12:16:52.788Z,47.30
2019-03-05T12:19:27.723Z,47.50
2019-03-05T12:22:01.032Z,48.40
2019-03-05T12:24:35.558Z,49.20
2019-03-05T12:27:06.271Z,49.00
2019-03-05T12:29:35.509Z,48.00
2019-03-05T12:32:07.744Z,49.10
2019-03-05T12:37:28.556Z,50.20
2019-03-05T12:39:59.912Z,48.00
2019-03-05T12:42:31.537Z,48.20
2019-03-05T12:48:43.930Z,47.20
2019-03-05T12:51:13.672Z,46.70
2019-03-05T12:57:14.289Z,47.50
2019-03-05T12:59:44.450Z,44.30
2019-03-05T13:02:14.311Z,45.00
2019-03-05T13:04:50.464Z,44.30
2019-03-05T13:07:43.755Z,44.80
2019-03-05T13:10:18.471Z,44.90
2019-03-05T13:12:49.790Z,46.10
2019-03-05T13:15:22.817Z,47.40
2019-03-05T13:18:01.231Z,47.00
2019-03-05T13:20:30.619Z,47.30
2019-03-05T13:23:08.716Z,48.30
2019-03-05T13:25:33.493Z,47.30
2019-03-05T13:28:04.163Z,47.60
2019-03-05T13:30:33.900Z,47.80
2019-03-05T13:33:05.029Z,47.10
2019-03-05T13:35:34.014Z,48.00
2019-03-05T13:38:09.454Z,47.80
2019-03-05T13:40:41.385Z,46.60
2019-03-05T13:43:14.994Z,47.80
2019-03-05T13:45:49.147Z,49.30
2019-03-05T13:48:23.536Z,48.80
2019-03-05T13:51:28.672Z,49.90
2019-03-05T13:54:05.825Z,50.00
2019-03-05T13:56:59.757Z,51.00
2019-03-05T13:59:46.454Z,51.30
2019-03-05T14:14:44.697Z,51.10
2019-03-05T14:17:15.353Z,51.30
2019-03-05T14:19:44.471Z,50.40
2019-03-05T14:22:13.554Z,50.50
2019-03-05T14:24:42.839Z,50.00
2019-03-05T14:27:12.513Z,51.50
2019-03-05T14:29:41.808Z,52.00
2019-03-05T14:32:11.685Z,52.60
2019-03-05T14:34:40.930Z,50.90
2019-03-05T14:37:11.839Z,48.60
2019-03-05T14:39:45.387Z,46.90
2019-03-05T14:42:17.151Z,47.00
2019-03-05T14:44:46.680Z,48.30
2019-03-05T14:47:15.816Z,48.20
2019-03-05T14:49:44.960Z,48.80
2019-03-05T14:52:14.147Z,48.70
2019-03-05T14:54:51.635Z,47.80
2019-03-05T14:57:20.781Z,47.00
2019-03-05T14:59:49.935Z,47.80
2019-03-05T15:02:21.454Z,48.20
2019-03-05T15:04:50.422Z,49.00
2019-03-05T15:07:19.412Z,49.00
2019-03-05T15:09:51.287Z,49.90
2019-03-05T15:12:21.794Z,48.60
2019-03-05T15:14:50.914Z,49.20
2019-03-05T15:17:20.468Z,50.80
2019-03-05T15:19:49.589Z,50.30
2019-03-05T15:22:19.878Z,50.50
2019-03-05T15:24:50.359Z,50.70
2019-03-05T15:27:20.535Z,50.10
2019-03-05T15:29:50.293Z,50.00
2019-03-05T15:32:19.382Z,48.20
2019-03-05T15:34:48.287Z,49.50
2019-03-05T15:37:17.393Z,48.90
2019-03-05T15:39:49.097Z,48.60
2019-03-05T15:42:18.357Z,49.40
2019-03-05T15:44:57.333Z,48.60
2019-03-05T15:50:27.943Z,48.00
2019-03-05T15:56:20.960Z,47.50
2019-03-05T16:02:26.546Z,48.50
2019-03-05T16:08:01.132Z,48.30
2019-03-05T16:10:39.310Z,48.40
2019-03-05T16:30:47.395Z,50.40
2019-03-05T16:33:23.553Z,49.60
2019-03-05T16:42:42.341Z,50.30
2019-03-05T16:45:18.987Z,50.80
2019-03-05T16:47:50.025Z,51.10
2019-03-05T16:50:22.520Z,51.10
2019-03-05T16:52:59.333Z,51.40
2019-03-05T16:55:32.993Z,51.60
2019-03-05T16:58:04.007Z,50.40
2019-03-05T17:00:56.989Z,50.40
2019-03-05T17:03:35.824Z,49.70
2019-03-05T17:06:25.765Z,49.60
2019-03-05T17:09:08.307Z,50.30
2019-03-05T17:11:42.275Z,51.50
2019-03-05T17:14:11.548Z,52.80
2019-03-05T17:16:41.608Z,51.90
2019-03-05T17:19:10.908Z,52.00
2019-03-05T17:21:45.070Z,51.30
2019-03-05T17:24:19.001Z,51.30
2019-03-05T18:57:19.057Z,66.90
2019-03-05T18:59:51.460Z,68.40
2019-03-05T19:05:21.589Z,70.00
2019-03-05T19:07:55.619Z,68.20
2019-03-05T19:10:30.455Z,68.50
2019-03-05T19:13:01.745Z,69.10
2019-03-05T19:15:34.071Z,68.70
2019-03-05T19:18:12.387Z,70.40
2019-03-05T20:04:47.643Z,74.50
2019-03-05T20:07:18.267Z,73.70
2019-03-05T20:09:47.326Z,73.30
2019-03-05T20:12:16.922Z,74.80
2019-03-05T20:14:46.248Z,76.20
2019-03-05T20:17:17.498Z,75.10
2019-03-05T20:19:46.611Z,73.50
2019-03-05T20:22:17.833Z,75.60
2019-03-05T20:24:48.190Z,73.90
2019-03-05T20:27:17.292Z,73.30
2019-03-05T20:29:46.498Z,72.20
2019-03-05T20:32:15.603Z,74.90
2019-03-05T20:34:46.597Z,75.10
2019-03-05T20:37:18.087Z,76.60
2019-03-05T20:39:47.264Z,77.10
2019-03-05T20:42:17.118Z,75.60
2019-03-05T20:44:47.737Z,76.40
2019-03-05T20:47:16.795Z,76.80
2019-03-05T20:49:47.898Z,77.30
2019-03-05T20:52:17.160Z,78.20
2019-03-05T20:54:46.376Z,79.10
2019-03-05T20:57:17.077Z,76.80
2019-03-05T20:59:52.299Z,75.00
2019-03-05T21:02:21.252Z,76.30
2019-03-05T21:04:50.297Z,76.90
2019-03-05T21:07:20.928Z,76.80
2019-03-05T21:09:49.880Z,76.30
2019-03-05T21:12:18.946Z,77.80
2019-03-05T21:14:47.896Z,77.70
2019-03-05T21:17:19.889Z,77.70
2019-03-05T21:19:50.454Z,77.80
2019-03-05T21:22:19.466Z,77.70
2019-03-05T21:24:48.552Z,76.10
2019-03-05T21:27:19.115Z,76.40
2019-03-05T21:29:48.223Z,75.50
2019-03-05T21:32:17.574Z,76.60
2019-03-05T21:34:47.034Z,77.50
2019-03-05T21:37:16.246Z,77.00
2019-03-05T21:39:46.597Z,78.10
2019-03-05T21:42:16.195Z,77.50
2019-03-05T21:44:45.176Z,77.20
2019-03-05T21:47:14.078Z,77.50
2019-03-05T21:49:43.159Z,77.20
2019-03-05T21:52:12.464Z,76.70
2019-03-05T21:54:42.230Z,76.70
2019-03-05T21:57:11.289Z,77.50
2019-03-05T21:59:43.288Z,75.70
2019-03-05T22:02:13.201Z,77.70
2019-03-05T22:04:42.039Z,78.90
2019-03-05T22:07:11.194Z,78.80
2019-03-05T22:09:40.046Z,78.10
2019-03-05T22:12:09.344Z,77.90
2019-03-05T22:14:38.784Z,78.80
2019-03-05T22:17:08.691Z,78.20
2019-03-05T22:19:37.703Z,79.40
2019-03-05T22:22:06.675Z,80.00
2019-03-05T22:24:35.575Z,80.10
2019-03-05T22:27:04.467Z,80.80
2019-03-05T22:29:33.385Z,80.70
2019-03-05T22:32:04.427Z,80.80
2019-03-05T22:34:33.326Z,79.30
2019-03-05T22:37:02.247Z,79.70
2019-03-05T22:39:31.091Z,79.70
2019-03-05T22:41:59.944Z,79.10
2019-03-05T22:44:28.845Z,80.40
2019-03-05T22:46:57.659Z,80.70
2019-03-05T22:49:26.446Z,81.00
2019-03-05T22:51:55.363Z,81.40
2019-03-05T22:54:25.077Z,81.80
2019-03-05T22:56:55.354Z,81.60
2019-03-05T22:59:25.278Z,83.00
2019-03-05T23:01:54.136Z,83.00
2019-03-05T23:04:26.085Z,82.50
2019-03-05T23:06:54.907Z,82.70
2019-03-05T23:09:24.643Z,82.20
2019-03-05T23:11:53.499Z,82.30
2019-03-05T23:14:22.459Z,83.30
2019-03-05T23:16:51.220Z,84.40
2019-03-05T23:19:20.349Z,85.40
2019-03-05T23:21:49.067Z,85.70
2019-03-05T23:24:17.996Z,86.10
2019-03-05T23:26:46.768Z,86.20
2019-03-05T23:29:16.530Z,86.20
2019-03-05T23:31:45.474Z,86.10
2019-03-05T23:34:18.186Z,86.70
2019-03-05T23:36:44.680Z,86.40
2019-03-05T23:39:16.815Z,85.40
2019-03-05T23:41:45.791Z,85.40
2019-03-05T23:44:14.941Z,86.50
2019-03-05T23:46:44.036Z,86.60
2019-03-05T23:49:12.841Z,84.70
2019-03-05T23:51:41.615Z,84.70
2019-03-05T23:54:10.319Z,84.40
2019-03-05T23:56:39.193Z,84.40
2019-03-05T23:59:07.918Z,84.00
